Time;durP1;ratioP1;P1;durP2;ratioP2;P2;SDS_P1;SDS_P2;PMS_P1;PMS_P2;Temp;Humidity;BMP_temperature;BMP_pressure;BME280_temperature;BME280_humidity;BME280_pressure;Samples;Min_cycle;Max_cycle;Signal;HPM_P1;HPM_P2
2022/01/16 00:01:22;;;;;;;32.35;17.00;;;4.30;99.90;;;;;;4957614;28;20444;-71
2022/01/16 00:04:07;;;;;;;33.00;17.40;;;4.30;99.90;;;;;;4954539;28;20038;-71
2022/01/16 00:06:33;;;;;;;32.88;16.70;;;4.30;99.90;;;;;;4963617;28;20023;-72
2022/01/16 00:08:59;;;;;;;32.45;16.92;;;4.30;99.90;;;;;;4959724;28;20029;-71
2022/01/16 00:11:25;;;;;;;35.60;17.73;;;4.30;99.90;;;;;;4955935;28;20022;-71
2022/01/16 00:13:51;;;;;;;31.05;16.80;;;4.30;99.90;;;;;;4956784;28;20135;-71
2022/01/16 00:16:17;;;;;;;32.13;17.02;;;4.30;99.90;;;;;;4957133;28;20031;-72
2022/01/16 00:18:50;;;;;;;31.10;17.25;;;4.30;99.90;;;;;;4956301;28;20442;-71
2022/01/16 00:21:26;;;;;;;32.63;16.55;;;4.20;99.90;;;;;;4951594;28;20562;-72
2022/01/16 00:23:53;;;;;;;31.80;16.33;;;4.20;99.90;;;;;;4956146;28;20031;-71
2022/01/16 00:26:19;;;;;;;32.83;17.10;;;4.20;99.90;;;;;;4958435;28;20023;-71
2022/01/16 00:28:45;;;;;;;29.55;15.55;;;4.20;99.90;;;;;;4956128;28;20055;-72
2022/01/16 00:31:14;;;;;;;30.30;16.55;;;4.20;99.90;;;;;;4956659;28;20412;-73
2022/01/16 00:33:42;;;;;;;29.15;15.98;;;4.30;99.90;;;;;;4955269;28;20485;-72
2022/01/16 00:36:10;;;;;;;28.08;16.65;;;4.30;99.90;;;;;;4957141;28;20035;-71
2022/01/16 00:38:39;;;;;;;28.40;15.40;;;4.30;99.90;;;;;;4955488;28;20031;-72
2022/01/16 00:41:05;;;;;;;30.30;16.15;;;4.30;99.90;;;;;;4956206;28;20023;-71
2022/01/16 00:43:31;;;;;;;31.48;17.13;;;4.20;99.90;;;;;;4955690;28;20437;-71
2022/01/16 00:45:56;;;;;;;32.55;15.77;;;4.20;99.90;;;;;;4960297;28;20535;-71
2022/01/16 00:48:22;;;;;;;31.15;16.60;;;4.20;99.90;;;;;;4959336;28;20547;-72
2022/01/16 00:50:48;;;;;;;30.17;16.60;;;4.20;99.90;;;;;;4946231;28;20409;-71
2022/01/16 00:53:14;;;;;;;29.10;15.63;;;4.20;99.90;;;;;;4954897;28;20059;-72
2022/01/16 00:55:41;;;;;;;29.10;15.27;;;4.20;99.90;;;;;;4951776;28;20101;-73
2022/01/16 00:58:06;;;;;;;28.67;15.32;;;4.10;99.90;;;;;;4948283;28;20034;-73
2022/01/16 01:00:33;;;;;;;32.10;16.50;;;4.20;99.90;;;;;;4946382;28;20031;-72
2022/01/16 01:02:59;;;;;;;29.67;16.48;;;4.10;99.90;;;;;;4951477;28;20042;-72
2022/01/16 01:05:25;;;;;;;29.27;15.85;;;4.20;99.90;;;;;;4951847;28;20035;-71
2022/01/16 01:07:51;;;;;;;29.83;16.35;;;4.10;99.90;;;;;;4953815;28;20482;-72
2022/01/16 01:10:18;;;;;;;30.63;16.88;;;4.10;99.90;;;;;;4957030;28;20098;-72
2022/01/16 01:12:55;;;;;;;28.00;15.43;;;4.10;99.90;;;;;;4958087;28;20078;-72
2022/01/16 01:15:30;;;;;;;27.92;15.00;;;4.10;99.90;;;;;;4958328;28;20011;-72
2022/01/16 01:17:58;;;;;;;31.58;16.48;;;4.10;99.90;;;;;;4959026;28;20034;-71
2022/01/16 01:20:25;;;;;;;32.03;16.67;;;4.00;99.90;;;;;;4960495;28;20030;-72
2022/01/16 01:22:52;;;;;;;31.17;16.23;;;4.00;99.90;;;;;;4958492;28;20031;-71
2022/01/16 01:25:19;;;;;;;29.17;15.73;;;4.00;99.90;;;;;;4958725;28;20482;-73
2022/01/16 01:27:46;;;;;;;30.63;16.10;;;3.90;99.90;;;;;;4953053;28;20027;-71
2022/01/16 01:30:14;;;;;;;28.35;15.10;;;3.90;99.90;;;;;;4955860;28;20051;-71
2022/01/16 01:32:43;;;;;;;30.25;16.17;;;3.90;99.90;;;;;;4956030;28;20114;-72
2022/01/16 01:35:11;;;;;;;29.83;16.42;;;3.90;99.90;;;;;;4959944;28;20402;-71
2022/01/16 01:37:38;;;;;;;30.00;16.13;;;4.00;99.90;;;;;;4957521;28;20086;-73
2022/01/16 01:40:05;;;;;;;29.20;15.27;;;4.00;99.90;;;;;;4955313;28;20038;-72
2022/01/16 01:42:35;;;;;;;32.25;17.02;;;3.90;99.90;;;;;;4957853;28;20035;-72
2022/01/16 01:53:19;;;;;;;33.85;17.67;;;4.00;99.90;;;;;;4960034;28;20030;-72
2022/01/16 01:55:45;;;;;;;34.40;17.42;;;3.90;99.90;;;;;;4955040;28;20489;-73
2022/01/16 01:58:11;;;;;;;30.25;18.25;;;3.90;99.90;;;;;;4958451;28;20105;-71
2022/01/16 02:00:38;;;;;;;35.08;18.27;;;3.80;99.90;;;;;;4958057;28;20486;-72
2022/01/16 02:03:14;;;;;;;36.28;18.90;;;3.70;99.90;;;;;;4953850;28;20651;-71
2022/01/16 02:05:42;;;;;;;37.22;18.70;;;3.70;99.90;;;;;;4953213;28;20031;-73
2022/01/16 02:08:08;;;;;;;39.42;20.40;;;3.80;99.90;;;;;;4958280;28;20090;-71
2022/01/16 02:10:36;;;;;;;41.45;20.80;;;3.80;99.90;;;;;;4962315;28;20030;-73
2022/01/16 02:13:06;;;;;;;45.63;21.27;;;3.70;99.90;;;;;;4956428;28;20386;-72
2022/01/16 02:27:56;;;;;;;40.85;20.92;;;3.70;99.90;;;;;;4956700;28;20146;-72
2022/01/16 02:34:36;;;;;;;43.03;22.27;;;3.60;99.90;;;;;;4958079;28;20070;-72
2022/01/16 02:37:07;;;;;;;42.65;21.80;;;3.70;99.90;;;;;;4959606;28;20031;-72
2022/01/16 02:39:36;;;;;;;42.72;23.10;;;3.60;99.90;;;;;;4960144;28;20109;-74
2022/01/16 02:42:04;;;;;;;40.15;20.13;;;3.60;99.90;;;;;;4959279;28;20031;-72
2022/01/16 02:44:42;;;;;;;44.58;22.55;;;3.70;99.90;;;;;;4958632;28;20028;-73
2022/01/16 02:47:12;;;;;;;43.67;22.58;;;3.60;99.90;;;;;;4959766;28;20027;-73
2022/01/16 02:49:40;;;;;;;38.80;20.92;;;3.70;99.90;;;;;;4959589;28;20101;-74
2022/01/16 02:52:12;;;;;;;46.35;23.70;;;3.70;99.90;;;;;;4960375;28;20031;-73
2022/01/16 02:54:40;;;;;;;41.72;22.48;;;3.80;99.90;;;;;;4961438;28;20400;-71
2022/01/16 02:57:08;;;;;;;40.72;21.88;;;3.90;99.90;;;;;;4958396;28;20073;-71
2022/01/16 02:59:34;;;;;;;42.53;22.15;;;3.80;99.90;;;;;;4960396;28;20030;-71
2022/01/16 03:02:01;;;;;;;40.55;22.45;;;3.80;99.90;;;;;;4957044;28;20448;-72
2022/01/16 03:04:27;;;;;;;43.10;22.45;;;3.80;99.90;;;;;;4958143;28;20041;-72
2022/01/16 03:06:53;;;;;;;44.97;23.15;;;3.70;99.90;;;;;;4956463;28;20035;-71
2022/01/16 03:09:20;;;;;;;44.15;22.42;;;3.70;99.90;;;;;;4958007;28;20134;-71
2022/01/16 03:11:48;;;;;;;46.50;23.52;;;3.70;99.90;;;;;;4956020;28;20049;-74
2022/01/16 03:14:19;;;;;;;41.85;21.13;;;3.60;99.90;;;;;;4959501;28;20034;-72
2022/01/16 03:16:49;;;;;;;44.67;23.08;;;3.70;99.90;;;;;;4959863;28;20343;-71
2022/01/16 03:22:04;;;;;;;48.67;23.42;;;3.80;99.90;;;;;;4962346;28;20145;-74
2022/01/16 03:24:37;;;;;;;46.70;22.98;;;3.70;99.90;;;;;;4960775;28;20082;-72
2022/01/16 03:27:05;;;;;;;47.45;22.30;;;3.70;99.90;;;;;;4957636;28;20022;-72
2022/01/16 03:29:31;;;;;;;49.72;22.48;;;3.70;99.90;;;;;;4957558;28;20023;-72
2022/01/16 03:31:58;;;;;;;45.25;23.02;;;3.70;99.90;;;;;;4960391;28;20031;-72
2022/01/16 03:34:25;;;;;;;45.78;22.25;;;3.70;99.90;;;;;;4959653;28;20086;-75
2022/01/16 03:36:51;;;;;;;52.95;23.52;;;3.70;99.90;;;;;;4958582;28;20038;-75
2022/01/16 03:39:17;;;;;;;48.55;23.45;;;3.70;99.90;;;;;;4957196;28;20035;-71
2022/01/16 03:41:44;;;;;;;44.75;22.63;;;3.70;99.90;;;;;;4959415;28;20029;-73
2022/01/16 03:44:09;;;;;;;47.45;22.48;;;3.70;99.90;;;;;;4957488;28;20043;-71
2022/01/16 03:46:38;;;;;;;45.83;24.08;;;3.80;99.90;;;;;;4960016;28;20029;-71
2022/01/16 03:49:07;;;;;;;46.35;23.33;;;3.80;99.90;;;;;;4959147;28;20022;-71
2022/01/16 03:51:34;;;;;;;44.60;21.77;;;3.80;99.90;;;;;;4958301;28;20031;-73
2022/01/16 03:53:59;;;;;;;47.40;23.30;;;3.80;99.90;;;;;;4957892;28;20055;-71
2022/01/16 03:56:25;;;;;;;50.03;23.85;;;3.80;99.90;;;;;;4959498;28;20059;-72
2022/01/16 03:58:51;;;;;;;43.63;21.40;;;3.80;99.90;;;;;;4957479;28;20142;-72
2022/01/16 04:01:17;;;;;;;45.08;20.52;;;3.80;99.90;;;;;;4959619;28;20154;-71
2022/01/16 04:03:43;;;;;;;45.47;21.80;;;3.80;99.90;;;;;;4957239;28;20042;-72
2022/01/16 04:06:08;;;;;;;49.55;22.45;;;3.70;99.90;;;;;;4958195;28;20417;-72
2022/01/16 04:08:34;;;;;;;45.40;21.30;;;3.70;99.90;;;;;;4956512;28;20470;-72
2022/01/16 04:11:00;;;;;;;49.47;22.90;;;3.70;99.90;;;;;;4957779;28;20435;-72
2022/01/16 04:13:26;;;;;;;50.83;21.15;;;3.70;99.90;;;;;;4955274;28;20038;-72
2022/01/16 04:15:52;;;;;;;45.00;21.50;;;3.60;99.90;;;;;;4958852;28;20101;-71
2022/01/16 04:18:18;;;;;;;44.25;20.13;;;3.70;99.90;;;;;;4956759;28;20483;-72
2022/01/16 04:20:43;;;;;;;46.70;21.98;;;3.70;99.90;;;;;;4955453;28;20060;-72
2022/01/16 04:23:12;;;;;;;46.53;22.20;;;3.70;99.90;;;;;;4958791;28;20030;-71
2022/01/16 04:25:38;;;;;;;48.90;21.90;;;3.70;99.90;;;;;;4953322;28;20059;-71
2022/01/16 04:28:05;;;;;;;45.00;20.55;;;3.80;99.90;;;;;;4957215;28;20479;-71
2022/01/16 04:30:31;;;;;;;48.53;22.17;;;3.70;99.90;;;;;;4955204;28;20049;-71
2022/01/16 04:32:57;;;;;;;48.53;22.50;;;3.70;99.90;;;;;;4959767;28;20502;-71
2022/01/16 04:35:23;;;;;;;51.80;23.42;;;3.70;99.90;;;;;;4958486;28;20044;-73
2022/01/16 04:37:49;;;;;;;50.63;22.27;;;3.60;99.90;;;;;;4957232;28;20207;-73
2022/01/16 04:40:15;;;;;;;45.38;21.08;;;3.70;99.90;;;;;;4957439;28;20093;-73
2022/01/16 04:45:25;;;;;;;48.97;21.65;;;3.70;99.90;;;;;;4958013;28;20028;-73
2022/01/16 04:47:52;;;;;;;44.58;19.90;;;3.70;99.90;;;;;;4957583;28;20031;-73
2022/01/16 04:50:20;;;;;;;43.70;19.90;;;3.70;99.90;;;;;;4955508;28;20069;-74
2022/01/16 04:52:45;;;;;;;41.72;20.02;;;3.70;99.90;;;;;;4957136;28;20058;-74
2022/01/16 04:55:13;;;;;;;45.70;21.13;;;3.70;99.90;;;;;;4959359;28;20069;-74
2022/01/16 04:57:39;;;;;;;46.30;21.67;;;3.70;99.90;;;;;;4958519;28;20051;-74
2022/01/16 05:00:14;;;;;;;48.20;21.25;;;3.70;99.90;;;;;;4955852;28;20489;-74
2022/01/16 05:02:40;;;;;;;41.53;20.55;;;3.60;99.90;;;;;;4958362;28;20031;-74
2022/01/16 05:05:06;;;;;;;47.60;21.48;;;3.60;99.90;;;;;;4956619;28;20027;-73
2022/01/16 05:07:32;;;;;;;45.30;20.42;;;3.70;99.90;;;;;;4956633;28;20069;-73
2022/01/16 05:09:58;;;;;;;46.35;21.70;;;3.70;99.90;;;;;;4957124;28;20035;-74
2022/01/16 05:12:32;;;;;;;47.33;21.80;;;3.70;99.90;;;;;;4956242;28;20030;-73
2022/01/16 05:17:43;;;;;;;44.65;20.25;;;3.70;99.90;;;;;;4956394;28;20082;-74
2022/01/16 05:20:10;;;;;;;45.15;21.02;;;3.70;99.90;;;;;;4956976;28;20039;-74
2022/01/16 05:22:36;;;;;;;47.30;20.38;;;3.70;99.90;;;;;;4954782;28;20493;-73
2022/01/16 05:25:04;;;;;;;44.55;20.00;;;3.70;99.90;;;;;;4955726;28;20125;-73
2022/01/16 05:27:30;;;;;;;42.97;20.25;;;3.70;99.90;;;;;;4957627;28;20030;-72
2022/01/16 05:29:55;;;;;;;39.40;18.60;;;3.70;99.90;;;;;;4954484;28;20023;-72
2022/01/16 05:32:21;;;;;;;44.50;20.05;;;3.80;99.90;;;;;;4956346;28;20023;-72
2022/01/16 05:34:47;;;;;;;44.28;20.50;;;3.80;99.90;;;;;;4957583;28;20077;-71
2022/01/16 05:37:13;;;;;;;46.92;20.77;;;3.80;99.90;;;;;;4955281;28;20039;-72
2022/01/16 05:39:40;;;;;;;47.22;20.25;;;3.80;99.90;;;;;;4957190;28;20041;-72
2022/01/16 05:42:07;;;;;;;55.25;20.75;;;3.80;99.90;;;;;;4956625;28;20535;-72
2022/01/16 05:44:33;;;;;;;50.38;21.08;;;3.80;99.90;;;;;;4957501;28;20078;-72
2022/01/16 05:47:02;;;;;;;45.85;19.73;;;3.80;99.90;;;;;;4961654;28;20437;-72
2022/01/16 05:49:29;;;;;;;47.33;19.08;;;3.70;99.90;;;;;;4955700;28;20102;-72
2022/01/16 05:51:55;;;;;;;47.95;19.58;;;3.70;99.90;;;;;;4956034;28;20039;-72
2022/01/16 05:54:20;;;;;;;49.30;19.90;;;3.70;99.90;;;;;;4956933;28;20501;-72
2022/01/16 05:56:46;;;;;;;47.85;19.95;;;3.70;99.90;;;;;;4954194;28;20035;-72
2022/01/16 05:59:11;;;;;;;44.35;19.70;;;3.70;99.90;;;;;;4954852;28;20046;-73
2022/01/16 06:01:37;;;;;;;44.58;19.63;;;3.70;99.90;;;;;;4954464;28;20031;-73
2022/01/16 06:04:03;;;;;;;57.38;21.77;;;3.70;99.90;;;;;;4954946;28;20045;-74
2022/01/16 06:06:29;;;;;;;51.13;20.63;;;3.70;99.90;;;;;;4953678;28;20023;-74
2022/01/16 06:08:54;;;;;;;48.25;20.80;;;3.70;99.90;;;;;;4955158;28;20035;-74
2022/01/16 06:11:20;;;;;;;52.50;22.17;;;3.70;99.90;;;;;;4955278;28;20055;-73
2022/01/16 06:13:46;;;;;;;57.88;23.27;;;3.70;99.90;;;;;;4953895;28;20170;-74
2022/01/16 06:16:12;;;;;;;53.33;22.65;;;3.70;99.90;;;;;;4949439;28;20559;-73
2022/01/16 06:18:37;;;;;;;60.92;23.33;;;3.80;99.90;;;;;;4956213;28;20625;-74
2022/01/16 06:21:03;;;;;;;58.53;23.25;;;3.80;99.90;;;;;;4954738;28;20110;-74
2022/01/16 06:23:29;;;;;;;60.05;23.98;;;3.80;99.90;;;;;;4956148;28;20087;-74
2022/01/16 06:25:55;;;;;;;55.30;23.75;;;3.80;99.90;;;;;;4959887;28;20027;-73
2022/01/16 06:28:25;;;;;;;55.53;23.13;;;3.80;99.90;;;;;;4958388;28;20126;-73
2022/01/16 06:30:51;;;;;;;61.13;23.70;;;3.90;99.90;;;;;;4957144;28;20107;-73
2022/01/16 06:33:17;;;;;;;61.67;23.83;;;3.80;99.90;;;;;;4957556;28;20035;-74
2022/01/16 06:35:43;;;;;;;54.75;23.45;;;3.80;99.90;;;;;;4960598;28;20523;-72
2022/01/16 06:38:09;;;;;;;62.42;24.33;;;3.80;99.90;;;;;;4959438;28;20151;-73
2022/01/16 06:40:34;;;;;;;56.30;22.92;;;3.90;99.90;;;;;;4959081;28;20059;-74
2022/01/16 06:43:00;;;;;;;60.45;24.70;;;3.90;99.90;;;;;;4970279;28;20485;-73
2022/01/16 06:45:26;;;;;;;54.05;24.15;;;3.90;99.90;;;;;;4954073;28;20445;-74
2022/01/16 06:47:52;;;;;;;60.63;24.63;;;3.90;99.90;;;;;;4956353;28;20057;-73
2022/01/16 06:50:18;;;;;;;58.10;22.98;;;3.90;99.90;;;;;;4958075;28;20034;-73
2022/01/16 06:52:44;;;;;;;57.75;23.10;;;3.80;99.90;;;;;;4961813;28;20027;-74
2022/01/16 06:55:10;;;;;;;54.22;23.00;;;3.80;99.90;;;;;;4960360;28;20105;-73
2022/01/16 06:57:36;;;;;;;50.70;20.23;;;3.80;99.90;;;;;;4960514;28;20497;-74
2022/01/16 07:00:05;;;;;;;52.08;21.33;;;3.80;99.90;;;;;;4958290;28;20413;-73
2022/01/16 07:02:31;;;;;;;54.13;20.88;;;3.80;99.90;;;;;;4954412;28;20028;-73
2022/01/16 07:04:57;;;;;;;45.70;18.77;;;3.70;99.90;;;;;;4958532;28;20114;-74
2022/01/16 07:07:22;;;;;;;50.05;20.85;;;3.70;99.90;;;;;;4956029;28;20099;-74
2022/01/16 07:09:48;;;;;;;53.90;20.73;;;3.70;99.90;;;;;;4959648;28;20027;-73
2022/01/16 07:12:14;;;;;;;55.97;21.40;;;3.70;99.90;;;;;;4961010;28;20027;-73
2022/01/16 07:14:39;;;;;;;47.97;21.58;;;3.70;99.90;;;;;;4956956;28;20079;-74
2022/01/16 07:17:06;;;;;;;51.97;20.05;;;3.70;99.90;;;;;;4958208;28;20476;-73
2022/01/16 07:19:31;;;;;;;48.70;20.27;;;3.70;99.90;;;;;;4958186;28;20031;-75
2022/01/16 07:21:57;;;;;;;55.03;21.40;;;3.70;99.90;;;;;;4958790;28;20026;-73
2022/01/16 07:24:22;;;;;;;47.70;20.00;;;3.70;99.90;;;;;;4957140;28;20087;-73
2022/01/16 07:26:48;;;;;;;51.65;21.55;;;3.70;99.90;;;;;;4959191;28;20108;-73
2022/01/16 07:29:14;;;;;;;57.67;24.15;;;3.70;99.90;;;;;;4961128;28;20043;-73
2022/01/16 07:31:39;;;;;;;64.90;24.67;;;3.60;99.90;;;;;;4960182;28;20034;-73
2022/01/16 07:34:06;;;;;;;62.47;23.65;;;3.60;99.90;;;;;;4958877;28;20035;-74
2022/01/16 07:36:33;;;;;;;69.78;25.27;;;3.50;99.90;;;;;;4956197;28;20023;-74
2022/01/16 07:38:59;;;;;;;65.88;24.73;;;3.60;99.90;;;;;;4957908;28;20050;-74
2022/01/16 07:41:25;;;;;;;58.28;22.90;;;3.50;99.90;;;;;;4957638;28;20043;-73
2022/01/16 07:43:50;;;;;;;61.47;24.25;;;3.50;99.90;;;;;;4955073;28;20027;-74
2022/01/16 07:46:19;;;;;;;55.38;22.38;;;3.60;99.90;;;;;;4959418;28;20512;-74
2022/01/16 07:48:45;;;;;;;66.20;24.88;;;3.60;99.90;;;;;;4960826;28;20023;-73
2022/01/16 07:51:11;;;;;;;59.78;23.75;;;3.70;99.90;;;;;;4958377;28;20255;-74
2022/01/16 07:53:37;;;;;;;58.67;24.48;;;3.70;99.90;;;;;;4957716;28;20027;-73
2022/01/16 07:56:03;;;;;;;55.30;22.08;;;3.70;99.90;;;;;;4956247;28;20031;-73
2022/01/16 07:58:29;;;;;;;66.85;24.48;;;3.70;99.90;;;;;;4957381;28;20047;-74
2022/01/16 08:00:56;;;;;;;68.90;25.48;;;3.60;99.90;;;;;;4955835;28;20035;-74
2022/01/16 08:03:22;;;;;;;69.28;28.63;;;3.70;99.90;;;;;;4957454;28;20023;-72
2022/01/16 08:05:48;;;;;;;68.65;28.17;;;3.70;99.90;;;;;;4958935;28;20055;-73
2022/01/16 08:08:14;;;;;;;77.68;31.60;;;3.60;99.90;;;;;;4958057;28;20452;-73
2022/01/16 08:10:40;;;;;;;78.32;30.85;;;3.60;99.90;;;;;;4957586;28;20428;-72
2022/01/16 08:13:06;;;;;;;84.72;31.25;;;3.50;99.90;;;;;;4957092;28;20023;-72
2022/01/16 08:15:32;;;;;;;79.32;30.60;;;3.50;99.90;;;;;;4958890;28;20097;-74
2022/01/16 08:17:58;;;;;;;75.68;29.98;;;3.50;99.90;;;;;;4955039;28;20027;-74
2022/01/16 08:20:23;;;;;;;78.95;30.85;;;3.50;99.90;;;;;;4955865;28;20023;-73
2022/01/16 08:22:49;;;;;;;84.05;30.38;;;3.60;99.90;;;;;;4958053;28;20369;-74
2022/01/16 08:25:15;;;;;;;83.15;30.50;;;3.60;99.90;;;;;;4955976;28;20378;-74
2022/01/16 08:27:41;;;;;;;90.18;31.95;;;3.60;99.90;;;;;;4955411;28;20023;-73
2022/01/16 08:30:08;;;;;;;79.75;29.10;;;3.60;99.90;;;;;;4956091;28;20443;-75
2022/01/16 08:32:34;;;;;;;93.45;30.73;;;3.60;99.90;;;;;;4959714;28;20019;-75
2022/01/16 08:35:00;;;;;;;89.60;29.58;;;3.60;99.90;;;;;;4957476;28;20038;-75
2022/01/16 08:37:26;;;;;;;84.35;29.33;;;3.50;99.90;;;;;;4952708;28;20030;-74
2022/01/16 08:39:52;;;;;;;83.20;30.23;;;3.50;99.90;;;;;;4956927;28;20043;-73
2022/01/16 08:42:18;;;;;;;89.93;31.17;;;3.50;99.90;;;;;;4957515;28;20023;-74
2022/01/16 08:44:44;;;;;;;99.90;32.42;;;3.50;99.90;;;;;;4954867;28;20031;-74
2022/01/16 08:47:10;;;;;;;94.30;30.90;;;3.50;99.90;;;;;;4957150;28;20038;-73
2022/01/16 08:49:36;;;;;;;83.97;29.13;;;3.50;99.90;;;;;;4956263;28;20020;-72
2022/01/16 08:52:03;;;;;;;86.07;29.45;;;3.50;99.90;;;;;;4967162;28;20102;-73
2022/01/16 08:54:29;;;;;;;83.20;31.25;;;3.50;99.90;;;;;;4955208;28;20058;-73
2022/01/16 08:56:55;;;;;;;97.13;31.65;;;3.50;99.90;;;;;;4958611;28;20153;-75
2022/01/16 08:59:20;;;;;;;91.25;31.38;;;3.50;99.90;;;;;;4957180;28;20047;-74
2022/01/16 09:01:46;;;;;;;91.85;32.10;;;3.50;99.90;;;;;;4956580;28;20027;-73
2022/01/16 09:04:12;;;;;;;88.20;29.77;;;3.50;99.90;;;;;;4956941;28;20030;-73
2022/01/16 09:06:38;;;;;;;92.25;31.00;;;3.50;99.90;;;;;;4957432;28;20023;-74
2022/01/16 09:09:04;;;;;;;100.03;31.13;;;3.50;99.90;;;;;;4960692;28;20500;-73
2022/01/16 09:11:30;;;;;;;95.95;32.83;;;3.50;99.90;;;;;;4957443;28;20046;-73
2022/01/16 09:13:58;;;;;;;92.63;31.73;;;3.50;99.90;;;;;;4963512;28;20033;-73
2022/01/16 09:16:25;;;;;;;87.28;29.88;;;3.60;99.90;;;;;;4957421;28;20469;-73
2022/01/16 09:18:50;;;;;;;98.88;32.35;;;3.60;99.90;;;;;;4963233;28;20038;-73
2022/01/16 09:21:17;;;;;;;92.82;32.25;;;3.50;99.90;;;;;;4968052;28;20106;-74
2022/01/16 09:23:45;;;;;;;95.47;32.00;;;3.50;99.90;;;;;;4958898;28;20099;-74
2022/01/16 09:26:11;;;;;;;92.05;31.58;;;3.60;99.90;;;;;;4958228;28;20034;-74
2022/01/16 09:28:36;;;;;;;105.50;32.80;;;3.60;99.90;;;;;;4965111;28;20027;-73
2022/01/16 09:31:02;;;;;;;104.47;33.38;;;3.60;99.90;;;;;;4961446;28;20031;-74
2022/01/16 09:33:28;;;;;;;94.07;32.53;;;3.60;99.90;;;;;;4963888;28;20030;-74
2022/01/16 09:35:54;;;;;;;100.63;31.42;;;3.50;99.90;;;;;;4962613;28;20072;-75
2022/01/16 09:38:22;;;;;;;91.90;32.60;;;3.60;99.90;;;;;;4962293;28;20035;-75
2022/01/16 09:40:49;;;;;;;82.88;29.98;;;3.60;99.90;;;;;;4957757;28;20057;-76
2022/01/16 09:43:16;;;;;;;83.88;29.30;;;3.60;99.90;;;;;;4956419;28;20117;-75
2022/01/16 09:45:42;;;;;;;99.35;32.15;;;3.60;99.90;;;;;;4963102;28;20023;-76
2022/01/16 09:48:08;;;;;;;98.93;32.80;;;3.60;99.90;;;;;;4961454;28;20027;-72
2022/01/16 09:50:35;;;;;;;95.82;32.78;;;3.60;99.90;;;;;;4958094;28;20474;-74
2022/01/16 09:53:01;;;;;;;95.47;31.02;;;3.60;99.90;;;;;;4959490;28;20085;-74
2022/01/16 09:55:27;;;;;;;93.28;31.50;;;3.60;99.90;;;;;;4964173;28;20066;-75
2022/01/16 09:57:57;;;;;;;90.13;31.05;;;3.60;99.90;;;;;;4957782;28;20073;-75
2022/01/16 10:00:24;;;;;;;92.78;32.63;;;3.70;99.90;;;;;;4960167;28;20028;-74
2022/01/16 10:02:51;;;;;;;95.88;32.47;;;3.70;99.90;;;;;;4937262;28;20117;-74
2022/01/16 10:05:30;;;;;;;99.13;32.75;;;3.70;99.90;;;;;;4958497;28;20441;-74
2022/01/16 10:07:58;;;;;;;94.40;31.67;;;3.70;99.90;;;;;;4976162;28;20093;-73
2022/01/16 10:10:27;;;;;;;92.18;31.13;;;3.70;99.90;;;;;;4962420;28;20031;-72
2022/01/16 10:13:04;;;;;;;93.88;30.67;;;3.70;99.90;;;;;;4960932;28;20114;-73
2022/01/16 10:15:30;;;;;;;80.60;29.92;;;3.70;99.90;;;;;;4950346;28;20042;-73
2022/01/16 10:18:00;;;;;;;77.38;29.05;;;3.80;99.90;;;;;;4955787;28;20039;-73
2022/01/16 10:20:27;;;;;;;99.88;33.30;;;3.80;99.90;;;;;;4948135;28;20122;-72
2022/01/16 10:22:56;;;;;;;94.03;31.17;;;3.80;99.90;;;;;;4966640;28;20046;-72
2022/01/16 10:25:41;;;;;;;78.85;29.02;;;3.80;99.90;;;;;;4965797;28;20616;-73
2022/01/16 10:28:18;;;;;;;97.82;30.73;;;3.80;99.90;;;;;;4951169;28;20034;-74
2022/01/16 10:30:53;;;;;;;90.53;31.23;;;3.80;99.90;;;;;;4960309;28;20622;-72
2022/01/16 10:33:23;;;;;;;93.53;30.45;;;3.90;99.90;;;;;;4953910;28;20031;-73
2022/01/16 10:35:51;;;;;;;88.25;30.08;;;3.90;99.90;;;;;;4959687;28;20110;-73
2022/01/16 10:38:36;;;;;;;86.72;30.48;;;3.80;99.90;;;;;;4961172;28;20034;-73
2022/01/16 10:41:02;;;;;;;87.63;29.65;;;3.80;99.90;;;;;;4962868;28;20038;-73
2022/01/16 10:43:42;;;;;;;91.65;30.27;;;3.80;99.90;;;;;;4956218;28;20031;-73
2022/01/16 10:46:09;;;;;;;91.13;31.55;;;3.90;99.90;;;;;;4954827;28;20024;-73
2022/01/16 10:48:35;;;;;;;76.95;27.38;;;3.90;99.90;;;;;;4966077;28;20034;-73
2022/01/16 10:51:01;;;;;;;80.45;28.30;;;3.90;99.90;;;;;;4964407;28;20035;-73
2022/01/16 10:53:30;;;;;;;92.15;28.55;;;3.90;99.90;;;;;;4957486;28;20506;-73
2022/01/16 10:56:03;;;;;;;87.68;29.55;;;3.90;99.90;;;;;;4959121;28;20035;-74
2022/01/16 10:58:35;;;;;;;80.93;28.63;;;3.90;99.90;;;;;;4957498;28;20033;-72
2022/01/16 11:01:07;;;;;;;83.55;28.27;;;3.90;99.90;;;;;;4965146;28;20031;-72
2022/01/16 11:03:53;;;;;;;85.32;27.67;;;3.90;99.90;;;;;;4960179;28;20125;-73
2022/01/16 11:06:21;;;;;;;77.55;26.80;;;3.90;99.90;;;;;;4953428;28;20061;-72
2022/01/16 11:08:56;;;;;;;80.05;27.98;;;4.00;99.90;;;;;;4957917;28;20120;-72
2022/01/16 11:11:24;;;;;;;74.05;25.83;;;3.90;99.90;;;;;;4960547;28;20028;-72
2022/01/16 11:13:51;;;;;;;71.55;27.30;;;4.00;99.90;;;;;;4974344;28;20051;-73
2022/01/16 11:16:17;;;;;;;70.97;26.10;;;4.00;99.90;;;;;;4957800;28;20604;-73
2022/01/16 11:18:49;;;;;;;75.40;26.73;;;4.00;99.90;;;;;;4960932;28;20031;-72
2022/01/16 11:21:20;;;;;;;71.13;25.95;;;4.10;99.90;;;;;;4959039;28;20034;-72
2022/01/16 11:26:20;;;;;;;68.60;25.58;;;4.10;99.90;;;;;;4960793;28;20047;-73
2022/01/16 11:28:47;;;;;;;68.28;24.58;;;4.10;99.90;;;;;;4946869;28;20019;-73
2022/01/16 11:31:15;;;;;;;70.55;24.73;;;4.10;99.90;;;;;;4965698;28;20019;-73
2022/01/16 11:33:42;;;;;;;74.50;25.42;;;4.10;99.90;;;;;;4940128;29;20031;-73
2022/01/16 11:36:13;;;;;;;62.83;24.10;;;4.00;99.90;;;;;;4961341;28;20034;-73
2022/01/16 11:38:50;;;;;;;69.03;25.45;;;4.10;99.90;;;;;;4965586;28;20053;-72
2022/01/16 11:41:24;;;;;;;72.75;25.17;;;4.10;99.90;;;;;;4960273;28;20043;-74
2022/01/16 11:43:51;;;;;;;67.50;25.15;;;4.10;99.90;;;;;;4954984;28;20197;-73
2022/01/16 11:46:22;;;;;;;69.10;25.58;;;4.10;99.90;;;;;;4961778;28;20023;-73
2022/01/16 11:48:50;;;;;;;69.40;24.85;;;4.10;99.90;;;;;;4965852;28;20023;-73
2022/01/16 11:51:39;;;;;;;71.07;25.17;;;4.00;99.90;;;;;;4960945;28;20031;-73
2022/01/16 11:54:11;;;;;;;68.55;24.42;;;4.10;99.90;;;;;;4958782;28;20493;-72
2022/01/16 11:56:40;;;;;;;72.35;25.63;;;4.20;99.90;;;;;;4958268;28;20495;-73
2022/01/16 11:59:11;;;;;;;70.50;26.30;;;4.20;99.90;;;;;;4964464;28;20106;-73
2022/01/16 12:01:43;;;;;;;68.88;24.98;;;4.20;99.90;;;;;;4966183;28;20102;-72
2022/01/16 12:04:28;;;;;;;65.68;24.73;;;4.20;99.90;;;;;;4966023;28;20086;-73
2022/01/16 12:06:55;;;;;;;65.63;24.65;;;4.20;99.90;;;;;;4958418;28;20030;-72
2022/01/16 12:12:03;;;;;;;68.53;24.05;;;4.20;99.90;;;;;;4956604;28;20027;-72
2022/01/16 12:14:48;;;;;;;71.40;25.10;;;4.20;99.90;;;;;;4954475;28;20027;-71
2022/01/16 12:17:45;;;;;;;223.43;83.30;;;4.20;99.90;;;;;;4955700;28;20108;-73
2022/01/16 12:20:13;;;;;;;177.25;70.35;;;4.20;99.90;;;;;;4961812;28;20442;-72
2022/01/16 12:22:44;;;;;;;95.15;36.15;;;4.30;99.90;;;;;;4961761;28;20123;-72
2022/01/16 12:25:41;;;;;;;84.88;29.63;;;4.40;99.90;;;;;;4959883;28;20039;-72
2022/01/16 12:28:09;;;;;;;72.55;25.95;;;4.40;99.90;;;;;;4963310;28;20106;-74
2022/01/16 12:30:44;;;;;;;82.43;28.00;;;4.40;99.90;;;;;;4956280;28;20397;-72
2022/01/16 12:33:16;;;;;;;81.20;27.08;;;4.40;99.90;;;;;;4938379;28;20485;-74
2022/01/16 12:35:42;;;;;;;72.18;26.15;;;4.40;99.90;;;;;;4959349;28;20023;-74
2022/01/16 12:38:12;;;;;;;81.13;27.45;;;4.40;99.90;;;;;;4949128;28;20497;-75
2022/01/16 12:40:39;;;;;;;72.10;25.45;;;4.50;99.90;;;;;;4953019;28;20504;-74
2022/01/16 12:43:13;;;;;;;79.07;28.23;;;4.40;99.90;;;;;;4956986;28;20111;-75
2022/01/16 12:45:40;;;;;;;81.55;26.95;;;4.40;99.90;;;;;;4958385;28;20041;-75
2022/01/16 12:48:08;;;;;;;72.30;26.52;;;4.40;99.90;;;;;;4961506;28;20046;-74
2022/01/16 12:50:35;;;;;;;84.95;29.83;;;4.50;99.90;;;;;;4955827;28;20409;-74
2022/01/16 12:53:01;;;;;;;81.78;29.50;;;4.40;99.90;;;;;;4956913;28;20077;-73
2022/01/16 12:55:28;;;;;;;79.13;29.23;;;4.50;99.90;;;;;;4950587;28;20433;-75
2022/01/16 12:57:54;;;;;;;85.70;30.30;;;4.50;99.90;;;;;;4958391;28;20036;-74
2022/01/16 13:00:20;;;;;;;76.68;28.42;;;4.60;99.90;;;;;;4951293;28;20031;-74
2022/01/16 13:02:53;;;;;;;88.85;30.48;;;4.60;99.90;;;;;;4939444;28;20118;-74
2022/01/16 13:05:21;;;;;;;73.97;26.52;;;4.60;99.90;;;;;;4956037;28;20053;-74
2022/01/16 13:07:47;;;;;;;85.43;29.58;;;4.60;99.90;;;;;;4958408;28;20023;-74
2022/01/16 13:10:13;;;;;;;79.78;30.80;;;4.70;99.90;;;;;;4958294;28;20073;-73
2022/01/16 13:12:38;;;;;;;89.38;31.10;;;4.70;99.90;;;;;;4956094;28;20028;-73
2022/01/16 13:15:05;;;;;;;84.15;30.58;;;4.70;99.90;;;;;;4966048;28;20077;-74
2022/01/16 13:17:35;;;;;;;81.82;30.92;;;4.80;99.90;;;;;;4951909;28;20039;-74